Time,TemperatureF,DewpointF,PressureIn,WindDirection,WindDirectionDegrees,WindSpeedMPH,WindSpeedGustMPH,Humidity,HourlyPrecipIn,Conditions,Clouds,dailyrainin,SoftwareType,DateUTC
2013-03-03 00:19:00,39.1,37.0,30.00,NNW,338,0.0,1.0,91,0.00,,,0.00,weatherlink.com 1.10,2013-03-03 05:19:00,
2013-03-03 00:28:00,38.8,36.0,29.99,NNW,338,0.0,1.0,91,0.00,,,0.00,weatherlink.com 1.10,2013-03-03 05:28:00,
2013-03-03 00:43:00,38.5,36.0,29.99,NNW,338,0.0,0.0,91,0.00,,,0.00,weatherlink.com 1.10,2013-03-03 05:43:00,
2013-03-03 00:58:00,38.2,36.0,29.99,NNW,338,0.0,0.0,91,0.00,,,0.00,weatherlink.com 1.10,2013-03-03 05:58:00,
2013-03-03 01:13:00,37.9,36.0,29.99,NNW,338,0.0,1.0,91,0.00,,,0.00,weatherlink.com 1.10,2013-03-03 06:13:00,
2013-03-03 01:28:00,37.4,35.0,30.00,NNW,338,2.0,2.0,91,0.00,,,0.00,weatherlink.com 1.10,2013-03-03 06:28:00,
2013-03-03 01:43:00,38.5,37.0,30.00,NNE,15,0.0,2.0,93,0.00,,,0.00,weatherlink.com 1.10,2013-03-03 06:43:00,
2013-03-03 01:58:00,39.7,38.0,29.99,North,360,3.0,4.0,93,0.00,,,0.00,weatherlink.com 1.10,2013-03-03 06:58:00,
2013-03-03 02:13:00,39.5,37.0,30.00,North,5,1.0,4.0,91,0.00,,,0.00,weatherlink.com 1.10,2013-03-03 07:13:00,
2013-03-03 02:28:00,39.7,37.0,30.00,NE,42,1.0,6.0,88,0.00,,,0.00,weatherlink.com 1.10,2013-03-03 07:28:00,
2013-03-03 02:43:00,39.8,36.0,30.00,NNW,338,3.0,5.0,85,0.00,,,0.00,weatherlink.com 1.10,2013-03-03 07:43:00,
2013-03-03 02:58:00,39.7,35.0,30.00,NE,46,1.0,4.0,84,0.00,,,0.00,weatherlink.com 1.10,2013-03-03 07:58:00,
2013-03-03 03:13:00,39.1,34.0,30.00,NNW,344,2.0,4.0,82,0.00,,,0.00,weatherlink.com 1.10,2013-03-03 08:13:00,
2013-03-03 03:28:00,39.2,34.0,30.01,NNE,21,0.0,5.0,81,0.00,,,0.00,weatherlink.com 1.10,2013-03-03 08:28:00,
2013-03-03 03:43:00,39.1,34.0,30.00,NNE,26,2.0,3.0,81,0.00,,,0.00,weatherlink.com 1.10,2013-03-03 08:43:00,
2013-03-03 03:58:00,38.9,34.0,30.00,North,5,0.0,3.0,81,0.00,,,0.00,weatherlink.com 1.10,2013-03-03 08:58:00,
2013-03-03 04:13:00,38.5,33.0,30.00,North,5,0.0,1.0,81,0.00,,,0.00,weatherlink.com 1.10,2013-03-03 09:13:00,
2013-03-03 04:28:00,37.8,32.0,30.00,North,9,0.0,3.0,81,0.00,,,0.00,weatherlink.com 1.10,2013-03-03 09:28:00,
2013-03-03 04:43:00,37.6,33.0,30.00,WNW,298,0.0,3.0,83,0.00,,,0.00,weatherlink.com 1.10,2013-03-03 09:43:00,
2013-03-03 04:58:00,37.5,33.0,30.01,WNW,293,0.0,2.0,83,0.00,,,0.00,weatherlink.com 1.10,2013-03-03 09:58:00,
2013-03-03 05:13:00,37.3,33.0,30.02,WNW,293,0.0,1.0,84,0.00,,,0.00,weatherlink.com 1.10,2013-03-03 10:13:00,
2013-03-03 05:28:00,36.9,33.0,30.02,WNW,293,0.0,0.0,84,0.00,,,0.00,weatherlink.com 1.10,2013-03-03 10:28:00,
2013-03-03 05:43:00,36.6,33.0,30.02,WNW,293,0.0,1.0,85,0.00,,,0.00,weatherlink.com 1.10,2013-03-03 10:43:00,
2013-03-03 05:58:00,36.3,33.0,30.01,WNW,293,0.0,2.0,86,0.00,,,0.00,weatherlink.com 1.10,2013-03-03 10:58:00,
2013-03-03 06:13:00,36.2,32.0,30.02,NNE,18,0.0,3.0,85,0.00,,,0.00,weatherlink.com 1.10,2013-03-03 11:13:00,
2013-03-03 06:28:00,36.6,32.0,30.03,NW,312,0.0,1.0,84,0.00,,,0.00,weatherlink.com 1.10,2013-03-03 11:28:00,
2013-03-03 06:44:00,37.3,33.0,30.04,NW,319,1.0,4.0,83,0.00,,,0.00,weatherlink.com 1.10,2013-03-03 11:44:00,
2013-03-03 06:59:00,38.2,33.0,30.04,NW,312,0.0,3.0,81,0.00,,,0.00,weatherlink.com 1.10,2013-03-03 11:59:00,
2013-03-03 07:14:00,38.6,33.0,30.04,NNW,327,3.0,5.0,81,0.00,,,0.00,weatherlink.com 1.10,2013-03-03 12:14:00,
2013-03-03 07:29:00,39.9,34.0,30.04,NW,322,3.0,4.0,79,0.00,,,0.00,weatherlink.com 1.10,2013-03-03 12:29:00,
2013-03-03 07:44:00,40.7,34.0,30.04,NW,307,1.0,5.0,77,0.00,,,0.00,weatherlink.com 1.10,2013-03-03 12:44:00,
2013-03-03 07:59:00,42.5,35.0,30.05,NW,318,2.0,8.0,74,0.00,,,0.00,weatherlink.com 1.10,2013-03-03 12:59:00,
2013-03-03 08:14:00,43.0,34.0,30.05,NNW,346,4.0,8.0,71,0.00,,,0.00,weatherlink.com 1.10,2013-03-03 13:14:00,
2013-03-03 08:29:00,43.2,34.0,30.06,NNW,345,2.0,9.0,69,0.00,,,0.00,weatherlink.com 1.10,2013-03-03 13:29:00,
2013-03-03 08:44:00,44.1,34.0,30.06,NNE,32,7.0,8.0,67,0.00,,,0.00,weatherlink.com 1.10,2013-03-03 13:44:00,
2013-03-03 08:59:00,45.1,34.0,30.06,North,360,3.0,8.0,65,0.00,,,0.00,weatherlink.com 1.10,2013-03-03 13:59:00,
2013-03-03 09:14:00,45.8,32.0,30.06,NW,312,5.0,10.0,60,0.00,,,0.00,weatherlink.com 1.10,2013-03-03 14:14:00,
2013-03-03 09:29:00,47.0,33.0,30.07,North,5,4.0,8.0,59,0.00,,,0.00,weatherlink.com 1.10,2013-03-03 14:29:00,
2013-03-03 09:44:00,48.3,34.0,30.07,NNW,329,6.0,9.0,58,0.00,,,0.00,weatherlink.com 1.10,2013-03-03 14:44:00,
2013-03-03 09:59:00,48.9,32.0,30.07,NW,321,6.0,10.0,53,0.00,,,0.00,weatherlink.com 1.10,2013-03-03 14:59:00,
2013-03-03 10:14:00,49.5,33.0,30.06,West,263,6.0,10.0,53,0.00,,,0.00,weatherlink.com 1.10,2013-03-03 15:14:00,
2013-03-03 10:29:00,50.2,34.0,30.06,NW,309,5.0,9.0,55,0.00,,,0.00,weatherlink.com 1.10,2013-03-03 15:29:00,
2013-03-03 10:44:00,50.4,34.0,30.06,West,280,2.0,9.0,53,0.00,,,0.00,weatherlink.com 1.10,2013-03-03 15:44:00,
2013-03-03 10:59:00,51.6,35.0,30.06,WNW,290,3.0,11.0,54,0.00,,,0.00,weatherlink.com 1.10,2013-03-03 15:59:00,
2013-03-03 11:14:00,52.6,36.0,30.05,WNW,283,2.0,7.0,54,0.00,,,0.00,weatherlink.com 1.10,2013-03-03 16:14:00,
2013-03-03 11:29:00,53.2,36.0,30.05,WSW,248,12.0,12.0,52,0.00,,,0.00,weatherlink.com 1.10,2013-03-03 16:29:00,
2013-03-03 11:44:00,53.9,36.0,30.04,WSW,253,7.0,17.0,51,0.00,,,0.00,weatherlink.com 1.10,2013-03-03 16:44:00,
2013-03-03 11:59:00,54.3,37.0,30.04,NNW,335,5.0,10.0,52,0.00,,,0.00,weatherlink.com 1.10,2013-03-03 16:59:00,
2013-03-03 12:14:00,53.2,36.0,30.04,North,5,6.0,12.0,53,0.00,,,0.00,weatherlink.com 1.10,2013-03-03 17:14:00,
2013-03-03 12:29:00,54.6,37.0,30.03,WNW,295,6.0,14.0,52,0.00,,,0.00,weatherlink.com 1.10,2013-03-03 17:29:00,
2013-03-03 12:44:00,55.1,37.0,30.03,WNW,282,10.0,15.0,50,0.00,,,0.00,weatherlink.com 1.10,2013-03-03 17:44:00,
2013-03-03 12:59:00,54.0,37.0,30.02,WNW,285,3.0,15.0,52,0.00,,,0.00,weatherlink.com 1.10,2013-03-03 17:59:00,
2013-03-03 13:15:00,54.1,37.0,30.02,WNW,302,9.0,13.0,52,0.00,,,0.00,weatherlink.com 1.10,2013-03-03 18:15:00,
2013-03-03 13:29:00,55.1,37.0,30.01,WSW,257,9.0,11.0,50,0.00,,,0.00,weatherlink.com 1.10,2013-03-03 18:29:00,
2013-03-03 13:45:00,56.5,37.0,30.01,WNW,284,7.0,12.0,48,0.00,,,0.00,weatherlink.com 1.10,2013-03-03 18:45:00,
2013-03-03 14:00:00,56.8,37.0,30.00,SW,234,2.0,9.0,48,0.00,,,0.00,weatherlink.com 1.10,2013-03-03 19:00:00,
2013-03-03 14:15:00,56.9,37.0,30.00,West,273,11.0,14.0,47,0.00,,,0.00,weatherlink.com 1.10,2013-03-03 19:15:00,
2013-03-03 14:30:00,56.0,36.0,30.00,SW,219,9.0,16.0,48,0.00,,,0.00,weatherlink.com 1.10,2013-03-03 19:30:00,
2013-03-03 14:45:00,54.2,36.0,30.00,WNW,288,4.0,15.0,51,0.00,,,0.00,weatherlink.com 1.10,2013-03-03 19:45:00,
2013-03-03 15:00:00,56.8,38.0,30.00,West,273,2.0,18.0,50,0.00,,,0.00,weatherlink.com 1.10,2013-03-03 20:00:00,
2013-03-03 15:15:00,54.9,36.0,30.01,West,259,5.0,15.0,50,0.00,,,0.00,weatherlink.com 1.10,2013-03-03 20:15:00,
2013-03-03 15:30:00,55.7,37.0,30.01,West,269,4.0,13.0,49,0.00,,,0.00,weatherlink.com 1.10,2013-03-03 20:30:00,
2013-03-03 15:45:00,54.9,37.0,30.01,WNW,294,5.0,13.0,51,0.00,,,0.00,weatherlink.com 1.10,2013-03-03 20:45:00,
2013-03-03 16:00:00,54.5,37.0,30.00,SW,229,10.0,12.0,53,0.00,,,0.00,weatherlink.com 1.10,2013-03-03 21:00:00,
2013-03-03 16:15:00,53.8,37.0,30.01,WNW,287,7.0,12.0,53,0.00,,,0.00,weatherlink.com 1.10,2013-03-03 21:15:00,
2013-03-03 16:30:00,54.6,38.0,30.01,WNW,283,5.0,12.0,54,0.00,,,0.00,weatherlink.com 1.10,2013-03-03 21:30:00,
2013-03-03 16:45:00,53.3,37.0,30.02,WNW,296,4.0,12.0,55,0.00,,,0.00,weatherlink.com 1.10,2013-03-03 21:45:00,
2013-03-03 17:00:00,52.1,36.0,30.02,North,350,5.0,15.0,54,0.00,,,0.00,weatherlink.com 1.10,2013-03-03 22:00:00,
2013-03-03 17:15:00,53.7,35.0,30.02,West,269,1.0,11.0,49,0.00,,,0.00,weatherlink.com 1.10,2013-03-03 22:15:00,
2013-03-03 17:30:00,52.2,35.0,30.03,West,261,6.0,13.0,52,0.00,,,0.00,weatherlink.com 1.10,2013-03-03 22:30:00,
2013-03-03 17:45:00,51.0,34.0,30.04,WSW,242,3.0,11.0,53,0.00,,,0.00,weatherlink.com 1.10,2013-03-03 22:45:00,
2013-03-03 18:00:00,50.3,34.0,30.04,West,276,6.0,11.0,55,0.00,,,0.00,weatherlink.com 1.10,2013-03-03 23:00:00,
2013-03-03 18:15:00,49.8,34.0,30.05,West,261,6.0,12.0,56,0.00,,,0.00,weatherlink.com 1.10,2013-03-03 23:15:00,
2013-03-03 18:30:00,49.3,35.0,30.05,West,263,3.0,6.0,58,0.00,,,0.00,weatherlink.com 1.10,2013-03-03 23:30:00,
2013-03-03 18:45:00,48.8,35.0,30.06,West,268,3.0,8.0,60,0.00,,,0.00,weatherlink.com 1.10,2013-03-03 23:45:00,
2013-03-03 19:00:00,48.6,36.0,30.07,West,269,0.0,9.0,61,0.00,,,0.00,weatherlink.com 1.10,2013-03-04 00:00:00,
2013-03-03 19:15:00,48.4,36.0,30.08,West,267,2.0,6.0,62,0.00,,,0.00,weatherlink.com 1.10,2013-03-04 00:15:00,
2013-03-03 19:30:00,47.7,36.0,30.08,NW,304,4.0,9.0,63,0.00,,,0.00,weatherlink.com 1.10,2013-03-04 00:30:00,
2013-03-03 19:45:00,47.2,35.0,30.09,WNW,286,0.0,8.0,64,0.00,,,0.00,weatherlink.com 1.10,2013-03-04 00:45:00,
2013-03-03 20:00:00,46.7,35.0,30.09,West,273,3.0,8.0,65,0.00,,,0.00,weatherlink.com 1.10,2013-03-04 01:00:00,
2013-03-03 20:15:00,46.2,35.0,30.10,West,277,5.0,7.0,65,0.00,,,0.00,weatherlink.com 1.10,2013-03-04 01:15:00,
2013-03-03 20:30:00,45.7,35.0,30.11,West,279,5.0,6.0,66,0.00,,,0.00,weatherlink.com 1.10,2013-03-04 01:30:00,
2013-03-03 20:45:00,45.2,36.0,30.11,North,349,5.0,8.0,69,0.00,,,0.00,weatherlink.com 1.10,2013-03-04 01:45:00,
2013-03-03 21:00:00,44.9,35.0,30.12,WNW,300,1.0,6.0,69,0.00,,,0.00,weatherlink.com 1.10,2013-03-04 02:00:00,
2013-03-03 21:15:00,44.4,35.0,30.13,WNW,290,2.0,5.0,70,0.00,,,0.00,weatherlink.com 1.10,2013-03-04 02:15:00,
2013-03-03 21:30:00,43.8,35.0,30.14,West,279,4.0,4.0,71,0.00,,,0.00,weatherlink.com 1.10,2013-03-04 02:30:00,
2013-03-03 21:45:00,43.3,35.0,30.14,WNW,292,0.0,3.0,72,0.00,,,0.00,weatherlink.com 1.10,2013-03-04 02:45:00,
2013-03-03 22:00:00,42.8,35.0,30.15,WNW,292,0.0,2.0,73,0.00,,,0.00,weatherlink.com 1.10,2013-03-04 03:00:00,
2013-03-03 22:15:00,42.2,35.0,30.16,WNW,292,0.0,2.0,75,0.00,,,0.00,weatherlink.com 1.10,2013-03-04 03:15:00,
2013-03-03 22:30:00,41.5,35.0,30.16,WNW,292,0.0,1.0,77,0.00,,,0.00,weatherlink.com 1.10,2013-03-04 03:30:00,
2013-03-03 22:45:00,40.8,34.0,30.16,WNW,292,0.0,0.0,77,0.00,,,0.00,weatherlink.com 1.10,2013-03-04 03:45:00,
2013-03-03 23:00:00,39.5,33.0,30.17,WNW,292,0.0,0.0,77,0.00,,,0.00,weatherlink.com 1.10,2013-03-04 04:00:00,
2013-03-03 23:15:00,38.3,33.0,30.16,WNW,292,0.0,0.0,81,0.00,,,0.00,weatherlink.com 1.10,2013-03-04 04:15:00,
2013-03-03 23:30:00,37.5,33.0,30.16,WNW,292,0.0,0.0,83,0.00,,,0.00,weatherlink.com 1.10,2013-03-04 04:30:00,
2013-03-03 23:45:00,36.9,33.0,30.16,WNW,292,0.0,0.0,84,0.00,,,0.00,weatherlink.com 1.10,2013-03-04 04:45:00,